Rebersburg, Pennsylvania
Current Conditions -  °F | °C
As of 3:53 PM on Wednesday 17 Dec 2014 (Local Time) from KUNV Reporting Station
Overcast Overcast  
Wind Chill: 25°   Ceiling: 3000
Heat Index: 36°   Visibility: 10mi
Dew Point: 27°   Wind: 17mph
Humidity: 70%   Direction: 280°W
Pressure: 29.97"   Gusts: 25mph
Location:  40.94°N, 77.44°W
Report Text: KUNV 172053Z 28015G22KT 10SM BKN030 OVC039 02/M03 A2997
Loading
Personal Weather Stations






























Interactive Weather Map New forecast layout! Learn more

10-Day Weather Forecast

Advertisements
Track Severe Weather on mobile